Basic Brave — 3EVG4 — position and weather

sailwx.info

Track history (hours):
 
Tides and Currents Weather Stations Pressure Air Temp Water Temp Dewpoint Dewpoint Depression Visibility Wind Speed Wind Dir Waves Ship Positions

Basic Brave

Last reported at 2018-Feb-19 17:42 UTC. Time now 2018-Feb-25 14:07 UTC.
Position N 22°57' E 123°46'.

Length 180 m; draft 8.5 m.

Type: Cargo ship. MMSI: 373701000.

Date/timePositionNaut miles runAvg speedWind from/ knotsBaromVisibWave heightAir tempDewpointWater temp
2018-Feb-19 17:42N 22°57' E 123°46'210.8
2018-Feb-19 17:30N 22°58' E 123°48'1310.7
2018-Feb-19 16:20N 23°06' E 123°58'810.6
2018-Feb-19 15:35N 23°11' E 124°05'210.5
2018-Feb-19 15:23N 23°13' E 124°07'410.5
2018-Feb-19 15:00N 23°15' E 124°10'1010.1
2018-Feb-19 14:03N 23°21' E 124°19'010.0
2018-Feb-19 14:00N 23°21' E 124°19'6 9.8
2018-Feb-19 13:24N 23°25' E 124°24'910.5
2018-Feb-19 12:36N 23°30' E 124°32'111.9
2018-Feb-19 12:29N 23°30' E 124°33'611.8
2018-Feb-19 12:00N 23°34' E 124°37'611.5
2018-Feb-19 11:29N 23°38' E 124°42'510.1
2018-Feb-19 10:58N 23°42' E 124°46'5 9.9
2018-Feb-19 10:29N 23°45' E 124°50'6 9.9
2018-Feb-19 09:54N 23°49' E 124°55'  
2018-Feb-16 13:33N 32°58' E 132°10'211.1
2018-Feb-16 13:21N 32°60' E 132°09'410.9
2018-Feb-16 13:00N 33°03' E 132°07'810.5
2018-Feb-16 12:17N 33°10' E 132°03'310.5
2018-Feb-16 12:00N 33°13' E 132°02'510.0
2018-Feb-16 11:30N 33°17' E 131°59'4 8.7
2018-Feb-16 11:00N 33°18' E 131°54'5 9.9
2018-Feb-16 10:30N 33°18' E 131°48'510.8
2018-Feb-16 10:00N 33°17' E 131°42'2 0.8
2018-Feb-16 07:10N 33°16' E 131°40'0 0.0
2018-Feb-16 06:52N 33°16' E 131°40'0 0.0
2018-Feb-16 06:16N 33°16' E 131°40'0 0.0
2018-Feb-16 05:52N 33°16' E 131°40'0 0.0
2018-Feb-16 05:28N 33°16' E 131°40'0 0.0
2018-Feb-16 04:22N 33°16' E 131°40'0 0.0
2018-Feb-16 03:58N 33°16' E 131°40'0 0.0
2018-Feb-16 01:28N 33°16' E 131°40'0 0.0
2018-Feb-16 00:52N 33°16' E 131°40'0 0.0
2018-Feb-16 00:16N 33°16' E 131°40'0 0.0
2018-Feb-15 23:16N 33°16' E 131°40'0 0.0
2018-Feb-15 22:58N 33°16' E 131°40'0 0.0
2018-Feb-15 22:28N 33°16' E 131°40'0 0.0
2018-Feb-15 21:58N 33°16' E 131°40'0 0.0
2018-Feb-15 21:28N 33°16' E 131°40'0 0.0
2018-Feb-15 20:58N 33°16' E 131°40'0 0.0
2018-Feb-15 20:22N 33°16' E 131°40'0 0.0
2018-Feb-15 19:58N 33°16' E 131°40'0 0.0
2018-Feb-15 19:28N 33°16' E 131°40'0 0.0
2018-Feb-14 12:28N 33°16' E 131°40'0 0.0
2018-Feb-13 22:34N 33°16' E 131°40'0 0.0
2018-Feb-13 22:28N 33°16' E 131°40'1 2.5
2018-Feb-13 22:00N 33°17' E 131°40'1 2.6
2018-Feb-13 21:30N 33°18' E 131°41'4 7.8
2018-Feb-13 21:00N 33°16' E 131°45'0 0.2
2018-Feb-13 20:25N 33°16' E 131°45'0 0.0
2018-Feb-13 19:55N 33°16' E 131°45'0 0.0
2018-Feb-13 19:19N 33°16' E 131°45'0 0.0
2018-Feb-13 18:49N 33°16' E 131°45'0 0.1
2018-Feb-13 18:07N 33°16' E 131°45'0 0.0
2018-Feb-13 17:55N 33°16' E 131°45'0 0.0
2018-Feb-13 16:55N 33°16' E 131°45'0 0.0
2018-Feb-13 16:13N 33°16' E 131°45'0 0.1
2018-Feb-13 15:49N 33°16' E 131°45'0 0.0
2018-Feb-13 15:25N 33°16' E 131°45'0 0.0
2018-Feb-13 14:49N 33°16' E 131°45'0 0.0
2018-Feb-13 14:25N 33°16' E 131°45'0 0.0
2018-Feb-13 13:49N 33°16' E 131°45'0 0.0
2018-Feb-13 13:19N 33°16' E 131°45'0 0.0
2018-Feb-13 12:49N 33°16' E 131°45'0 0.0
2018-Feb-13 12:25N 33°16' E 131°45'0 0.1
2018-Feb-13 11:55N 33°16' E 131°45'0 0.0
2018-Feb-13 11:25N 33°16' E 131°45'0 0.0
2018-Feb-13 10:55N 33°16' E 131°45'0 0.1
2018-Feb-13 10:28N 33°16' E 131°45'0 0.0
2018-Feb-13 09:55N 33°16' E 131°45'0 0.0
2018-Feb-13 09:25N 33°16' E 131°45'0 0.0
2018-Feb-13 08:55N 33°16' E 131°45'0 0.0
2018-Feb-13 08:25N 33°16' E 131°45'0 0.0
2018-Feb-13 07:49N 33°16' E 131°45'0 0.0
2018-Feb-13 07:25N 33°16' E 131°45'0 0.0
2018-Feb-13 06:49N 33°16' E 131°45'0 0.1
2018-Feb-13 06:25N 33°16' E 131°45'0 0.0
2018-Feb-13 05:55N 33°16' E 131°45'0 0.0
2018-Feb-13 05:25N 33°16' E 131°45'0 0.1
2018-Feb-13 04:55N 33°16' E 131°45'0 0.1
2018-Feb-13 04:25N 33°16' E 131°45'0 0.0
2018-Feb-13 03:49N 33°16' E 131°45'0 0.1
2018-Feb-13 03:25N 33°16' E 131°45'0 0.0
2018-Feb-13 02:49N 33°16' E 131°45'0 0.1
2018-Feb-13 02:25N 33°16' E 131°45'0 0.1
2018-Feb-13 01:55N 33°16' E 131°45'0 0.1
2018-Feb-13 01:25N 33°16' E 131°45'0 0.0
2018-Feb-13 00:43N 33°16' E 131°45'0 0.0
2018-Feb-13 00:25N 33°16' E 131°45'0 0.1
2018-Feb-12 23:55N 33°16' E 131°45'0 0.1
2018-Feb-12 23:25N 33°16' E 131°45'0 0.0
2018-Feb-12 22:55N 33°16' E 131°45'0 0.0
2018-Feb-12 22:07N 33°16' E 131°45'0 0.3
2018-Feb-12 21:55N 33°16' E 131°45'0 0.1
2018-Feb-12 21:28N 33°16' E 131°45'0 0.0
2018-Feb-12 20:55N 33°16' E 131°45'0 0.0
2018-Feb-12 20:25N 33°16' E 131°45'0 0.1
2018-Feb-12 19:55N 33°16' E 131°45'0 0.1
2018-Feb-12 19:22N 33°16' E 131°45'0 0.0
2018-Feb-12 18:43N 33°16' E 131°45'0 0.2
2018-Feb-12 18:25N 33°16' E 131°45'0 0.0
2018-Feb-12 17:49N 33°16' E 131°45'0 0.0
2018-Feb-12 17:25N 33°16' E 131°45'0 0.1
2018-Feb-12 16:58N 33°16' E 131°45'0 0.0
2018-Feb-12 16:25N 33°16' E 131°45'0 0.0
2018-Feb-12 15:07N 33°16' E 131°45'0 0.1
2018-Feb-12 14:55N 33°16' E 131°45'0 0.1
2018-Feb-12 14:25N 33°16' E 131°45'0 0.1
2018-Feb-12 13:55N 33°16' E 131°45'0 0.0
2018-Feb-12 13:25N 33°16' E 131°45'0 0.0
2018-Feb-12 12:49N 33°16' E 131°45'0 0.0
2018-Feb-12 12:25N 33°16' E 131°45'0 0.0
2018-Feb-12 11:55N 33°16' E 131°45'0 0.0
2018-Feb-12 11:25N 33°16' E 131°45'0 0.1
2018-Feb-12 10:55N 33°16' E 131°45'0 0.0
2018-Feb-12 10:25N 33°16' E 131°45'0 0.0
2018-Feb-12 09:58N 33°16' E 131°45'0 0.1
2018-Feb-12 09:28N 33°16' E 131°45'0 0.0
2018-Feb-12 08:49N 33°16' E 131°45'0 0.0
2018-Feb-12 08:25N 33°16' E 131°45'0 0.0
2018-Feb-12 07:49N 33°16' E 131°45'0 0.1
2018-Feb-12 07:25N 33°16' E 131°45'0 0.1
2018-Feb-12 06:55N 33°16' E 131°45'0 0.0
2018-Feb-12 06:13N 33°16' E 131°45'0 0.0
2018-Feb-12 05:58N 33°16' E 131°45'0 0.0
2018-Feb-12 05:25N 33°16' E 131°45'0 0.0
2018-Feb-12 04:55N 33°16' E 131°45'0 0.0
2018-Feb-12 04:28N 33°16' E 131°45'0 0.1
2018-Feb-12 03:52N 33°16' E 131°45'0 0.0
2018-Feb-12 03:22N 33°16' E 131°45'0 0.3
2018-Feb-12 03:00N 33°16' E 131°45'1 2.4
2018-Feb-12 02:30N 33°16' E 131°46'3 5.4
2018-Feb-12 02:00N 33°18' E 131°49'2 4.6
2018-Feb-12 01:30N 33°20' E 131°51'2 4.0
2018-Feb-12 01:00N 33°20' E 131°53'2 4.1
2018-Feb-12 00:30N 33°21' E 131°55'2 3.8
2018-Feb-12 00:00N 33°21' E 131°58'2 4.4
2018-Feb-11 23:30N 33°19' E 132°00'3 5.5
2018-Feb-11 23:00N 33°17' E 132°02'4 8.0
2018-Feb-11 22:30N 33°14' E 132°04'  
Track history (hours):
 
Tides and Currents Weather Stations Pressure Air Temp Water Temp Dewpoint Dewpoint Depression Visibility Wind Speed Wind Dir Waves Ship Positions

Basic Brave

Last reported at 2018-Feb-19 17:42 UTC. Time now 2018-Feb-25 14:07 UTC.
Position N 22°57' E 123°46'.

Length 180 m; draft 8.5 m.

Type: Cargo ship. MMSI: 373701000.

Date/timePositionNaut miles runAvg speedWind from/ knotsBaromVisibWave heightAir tempDewpointWater temp
2018-Feb-19 17:42N 22°57' E 123°46'210.8
2018-Feb-19 17:30N 22°58' E 123°48'1310.7
2018-Feb-19 16:20N 23°06' E 123°58'810.6
2018-Feb-19 15:35N 23°11' E 124°05'210.5
2018-Feb-19 15:23N 23°13' E 124°07'410.5
2018-Feb-19 15:00N 23°15' E 124°10'1010.1
2018-Feb-19 14:03N 23°21' E 124°19'010.0
2018-Feb-19 14:00N 23°21' E 124°19'6 9.8
2018-Feb-19 13:24N 23°25' E 124°24'910.5
2018-Feb-19 12:36N 23°30' E 124°32'111.9
2018-Feb-19 12:29N 23°30' E 124°33'611.8
2018-Feb-19 12:00N 23°34' E 124°37'611.5
2018-Feb-19 11:29N 23°38' E 124°42'510.1
2018-Feb-19 10:58N 23°42' E 124°46'5 9.9
2018-Feb-19 10:29N 23°45' E 124°50'6 9.9
2018-Feb-19 09:54N 23°49' E 124°55'  
2018-Feb-16 13:33N 32°58' E 132°10'211.1
2018-Feb-16 13:21N 32°60' E 132°09'410.9
2018-Feb-16 13:00N 33°03' E 132°07'810.5
2018-Feb-16 12:17N 33°10' E 132°03'310.5
2018-Feb-16 12:00N 33°13' E 132°02'510.0
2018-Feb-16 11:30N 33°17' E 131°59'4 8.7
2018-Feb-16 11:00N 33°18' E 131°54'5 9.9
2018-Feb-16 10:30N 33°18' E 131°48'510.8
2018-Feb-16 10:00N 33°17' E 131°42'2 0.8
2018-Feb-16 07:10N 33°16' E 131°40'0 0.0
2018-Feb-16 06:52N 33°16' E 131°40'0 0.0
2018-Feb-16 06:16N 33°16' E 131°40'0 0.0
2018-Feb-16 05:52N 33°16' E 131°40'0 0.0
2018-Feb-16 05:28N 33°16' E 131°40'0 0.0
2018-Feb-16 04:22N 33°16' E 131°40'0 0.0
2018-Feb-16 03:58N 33°16' E 131°40'0 0.0
2018-Feb-16 01:28N 33°16' E 131°40'0 0.0
2018-Feb-16 00:52N 33°16' E 131°40'0 0.0
2018-Feb-16 00:16N 33°16' E 131°40'0 0.0
2018-Feb-15 23:16N 33°16' E 131°40'0 0.0
2018-Feb-15 22:58N 33°16' E 131°40'0 0.0
2018-Feb-15 22:28N 33°16' E 131°40'0 0.0
2018-Feb-15 21:58N 33°16' E 131°40'0 0.0
2018-Feb-15 21:28N 33°16' E 131°40'0 0.0
2018-Feb-15 20:58N 33°16' E 131°40'0 0.0
2018-Feb-15 20:22N 33°16' E 131°40'0 0.0
2018-Feb-15 19:58N 33°16' E 131°40'0 0.0
2018-Feb-15 19:28N 33°16' E 131°40'0 0.0
2018-Feb-14 12:28N 33°16' E 131°40'0 0.0
2018-Feb-13 22:34N 33°16' E 131°40'0 0.0
2018-Feb-13 22:28N 33°16' E 131°40'1 2.5
2018-Feb-13 22:00N 33°17' E 131°40'1 2.6
2018-Feb-13 21:30N 33°18' E 131°41'4 7.8
2018-Feb-13 21:00N 33°16' E 131°45'0 0.2
2018-Feb-13 20:25N 33°16' E 131°45'0 0.0
2018-Feb-13 19:55N 33°16' E 131°45'0 0.0
2018-Feb-13 19:19N 33°16' E 131°45'0 0.0
2018-Feb-13 18:49N 33°16' E 131°45'0 0.1
2018-Feb-13 18:07N 33°16' E 131°45'0 0.0
2018-Feb-13 17:55N 33°16' E 131°45'0 0.0
2018-Feb-13 16:55N 33°16' E 131°45'0 0.0
2018-Feb-13 16:13N 33°16' E 131°45'0 0.1
2018-Feb-13 15:49N 33°16' E 131°45'0 0.0
2018-Feb-13 15:25N 33°16' E 131°45'0 0.0
2018-Feb-13 14:49N 33°16' E 131°45'0 0.0
2018-Feb-13 14:25N 33°16' E 131°45'0 0.0
2018-Feb-13 13:49N 33°16' E 131°45'0 0.0
2018-Feb-13 13:19N 33°16' E 131°45'0 0.0
2018-Feb-13 12:49N 33°16' E 131°45'0 0.0
2018-Feb-13 12:25N 33°16' E 131°45'0 0.1
2018-Feb-13 11:55N 33°16' E 131°45'0 0.0
2018-Feb-13 11:25N 33°16' E 131°45'0 0.0
2018-Feb-13 10:55N 33°16' E 131°45'0 0.1
2018-Feb-13 10:28N 33°16' E 131°45'0 0.0
2018-Feb-13 09:55N 33°16' E 131°45'0 0.0
2018-Feb-13 09:25N 33°16' E 131°45'0 0.0
2018-Feb-13 08:55N 33°16' E 131°45'0 0.0
2018-Feb-13 08:25N 33°16' E 131°45'0 0.0
2018-Feb-13 07:49N 33°16' E 131°45'0 0.0
2018-Feb-13 07:25N 33°16' E 131°45'0 0.0
2018-Feb-13 06:49N 33°16' E 131°45'0 0.1
2018-Feb-13 06:25N 33°16' E 131°45'0 0.0
2018-Feb-13 05:55N 33°16' E 131°45'0 0.0
2018-Feb-13 05:25N 33°16' E 131°45'0 0.1
2018-Feb-13 04:55N 33°16' E 131°45'0 0.1
2018-Feb-13 04:25N 33°16' E 131°45'0 0.0
2018-Feb-13 03:49N 33°16' E 131°45'0 0.1
2018-Feb-13 03:25N 33°16' E 131°45'0 0.0
2018-Feb-13 02:49N 33°16' E 131°45'0 0.1
2018-Feb-13 02:25N 33°16' E 131°45'0 0.1
2018-Feb-13 01:55N 33°16' E 131°45'0 0.1
2018-Feb-13 01:25N 33°16' E 131°45'0 0.0
2018-Feb-13 00:43N 33°16' E 131°45'0 0.0
2018-Feb-13 00:25N 33°16' E 131°45'0 0.1
2018-Feb-12 23:55N 33°16' E 131°45'0 0.1
2018-Feb-12 23:25N 33°16' E 131°45'0 0.0
2018-Feb-12 22:55N 33°16' E 131°45'0 0.0
2018-Feb-12 22:07N 33°16' E 131°45'0 0.3
2018-Feb-12 21:55N 33°16' E 131°45'0 0.1
2018-Feb-12 21:28N 33°16' E 131°45'0 0.0
2018-Feb-12 20:55N 33°16' E 131°45'0 0.0
2018-Feb-12 20:25N 33°16' E 131°45'0 0.1
2018-Feb-12 19:55N 33°16' E 131°45'0 0.1
2018-Feb-12 19:22N 33°16' E 131°45'0 0.0
2018-Feb-12 18:43N 33°16' E 131°45'0 0.2
2018-Feb-12 18:25N 33°16' E 131°45'0 0.0
2018-Feb-12 17:49N 33°16' E 131°45'0 0.0
2018-Feb-12 17:25N 33°16' E 131°45'0 0.1
2018-Feb-12 16:58N 33°16' E 131°45'0 0.0
2018-Feb-12 16:25N 33°16' E 131°45'0 0.0
2018-Feb-12 15:07N 33°16' E 131°45'0 0.1
2018-Feb-12 14:55N 33°16' E 131°45'0 0.1
2018-Feb-12 14:25N 33°16' E 131°45'0 0.1
2018-Feb-12 13:55N 33°16' E 131°45'0 0.0
2018-Feb-12 13:25N 33°16' E 131°45'0 0.0
2018-Feb-12 12:49N 33°16' E 131°45'0 0.0
2018-Feb-12 12:25N 33°16' E 131°45'0 0.0
2018-Feb-12 11:55N 33°16' E 131°45'0 0.0
2018-Feb-12 11:25N 33°16' E 131°45'0 0.1
2018-Feb-12 10:55N 33°16' E 131°45'0 0.0
2018-Feb-12 10:25N 33°16' E 131°45'0 0.0
2018-Feb-12 09:58N 33°16' E 131°45'0 0.1
2018-Feb-12 09:28N 33°16' E 131°45'0 0.0
2018-Feb-12 08:49N 33°16' E 131°45'0 0.0
2018-Feb-12 08:25N 33°16' E 131°45'0 0.0
2018-Feb-12 07:49N 33°16' E 131°45'0 0.1
2018-Feb-12 07:25N 33°16' E 131°45'0 0.1
2018-Feb-12 06:55N 33°16' E 131°45'0 0.0
2018-Feb-12 06:13N 33°16' E 131°45'0 0.0
2018-Feb-12 05:58N 33°16' E 131°45'0 0.0
2018-Feb-12 05:25N 33°16' E 131°45'0 0.0
2018-Feb-12 04:55N 33°16' E 131°45'0 0.0
2018-Feb-12 04:28N 33°16' E 131°45'0 0.1
2018-Feb-12 03:52N 33°16' E 131°45'0 0.0
2018-Feb-12 03:22N 33°16' E 131°45'0 0.3
2018-Feb-12 03:00N 33°16' E 131°45'1 2.4
2018-Feb-12 02:30N 33°16' E 131°46'3 5.4
2018-Feb-12 02:00N 33°18' E 131°49'2 4.6
2018-Feb-12 01:30N 33°20' E 131°51'2 4.0
2018-Feb-12 01:00N 33°20' E 131°53'2 4.1
2018-Feb-12 00:30N 33°21' E 131°55'2 3.8
2018-Feb-12 00:00N 33°21' E 131°58'2 4.4
2018-Feb-11 23:30N 33°19' E 132°00'3 5.5
2018-Feb-11 23:00N 33°17' E 132°02'4 8.0
2018-Feb-11 22:30N 33°14' E 132°04'  

Dump ship's entire track history